San Diego, California
Current Conditions -  °F | °C
As of 12:58 AM on Friday 31 Oct 2014 (Local Time) from KSAN Reporting Station
Scattered Clouds Scattered Clouds  
Wind Chill: 68°   Ceiling: Unl
Heat Index: 68°   Visibility: 10mi
Dew Point: 61°   Wind: 0mph
Humidity: 78%   Direction: NA
Pressure: 29.98"   Gusts: NA
Location:  32.72°N, 117.16°W
Report Text: KSAN 310758Z 00000KT 10SM SCT025 20/16 A2998 RMK AO2
Loading
Personal Weather Stations






























Interactive Weather Map
Tropical Storm Tracking
New forecast layout! Learn more

10-Day Weather Forecast

Advertisements
Track Severe Weather on mobile